Hamilton Island Airport
YBHM : now visible

Airfield :











YOU CAN JOIN US ON...

 
LOGIN :

Register | Disclaimer

   EN    FR    IT 

 









Legend :    VFR   Marginal VFR   IFR   Intensive IFR   Very Intensive IFR
Visi :
Ceiling :
>= 8 km
>= 3000ft
5 to 8 km
1000 to 3000 ft
1500m to 5 km
500 to 1000 ft
800 to 1500m
200 to 500 ft
< 800m
< 200 ft
Symbols :   Thunderstorms  Fog  Heavy snow  Heavy precipitations  Wind > 20 kt






- Airport Elevation : 15 ft
- IATA code : HTI


YBHM - Hamilton Island

CURRENT METAR :
  • 141208Z AUTO 15029G39KT 9999 // SCT019 BKN029 OVC048 24/21 Q1013

EXPIRED METARs :
  • 141130Z AUTO 18007KT 9999 // SCT024 BKN034 BKN039 27/23 Q1012
  • 141122Z AUTO 20007KT 9999 // SCT024 27/23 Q1012
  • 141100Z AUTO 01006KT 330V030 9999 // SCT018 SCT025 27/23 Q1010
  • 141030Z AUTO 04009KT 9999 // SCT018 26/23 Q1008 RF00.0/000.0
  • 141000Z AUTO 04009KT 9999 // SCT018 26/23 Q1008
  • 140930Z AUTO 36009KT 9999 // NCD 26/23 Q1007 RF00.0/000.0

TAF TAF YBHM
Valid from the 14 at 11:00 until the 15 at 00:00 UTC


141059Z 1411/1500 01010KT 9999 SCT022
PROB30
TEMPO 1411/1414 VRB25G35KT 2000 TSRA BKN010 SCT030CB



MET'MAP, your aeronautical weather chart ! - Copyright ORBIFLY December 2007 - Disclaimer

ORBIFLY MET'MAP TEAM :

Programming & Development : Alexandra Zaïnal
Concept & original design : Baudouin d'Aumeries
Assistance for programming : Marc-Olivier Méhu
Technical & hardware support : Manuel Goepfert

Contact : metmap@orbifly.com




SOURCES & CREDITS :

   NOAA       Earth
Advisory